createdAt,value
2022-10-01T00:03:05.958Z,9.58
2022-10-01T00:08:10.780Z,9.55
2022-10-01T00:13:13.483Z,9.54
2022-10-01T00:18:16.193Z,9.50
2022-10-01T00:23:20.300Z,9.48
2022-10-01T00:28:23.115Z,9.46
2022-10-01T00:33:26.454Z,9.45
2022-10-01T00:38:31.932Z,9.45
2022-10-01T00:43:37.616Z,9.42
2022-10-01T00:48:45.286Z,9.41
2022-10-01T00:53:49.436Z,9.38
2022-10-01T00:58:54.176Z,9.38
2022-10-01T01:03:58.490Z,9.35
2022-10-01T01:09:03.417Z,9.34
2022-10-01T01:14:16.103Z,9.34
2022-10-01T01:19:29.165Z,9.33
2022-10-01T01:24:45.060Z,9.31
2022-10-01T01:29:53.618Z,9.30
2022-10-01T01:35:02.748Z,9.32
2022-10-01T01:40:11.380Z,9.30
2022-10-01T01:45:19.721Z,9.29
2022-10-01T01:50:25.139Z,9.29
2022-10-01T01:55:31.935Z,9.31
2022-10-01T02:00:36.592Z,9.32
2022-10-01T02:05:53.382Z,9.33
2022-10-01T02:11:21.553Z,9.35
2022-10-01T02:16:34.350Z,9.36
2022-10-01T02:21:42.845Z,9.35
2022-10-01T02:26:49.475Z,9.36
2022-10-01T02:31:55.730Z,9.37
2022-10-01T02:37:02.266Z,9.37
2022-10-01T02:42:06.580Z,9.36
2022-10-01T02:47:15.818Z,9.35
2022-10-01T02:52:26.455Z,9.37
2022-10-01T02:57:29.891Z,9.36
2022-10-01T03:02:34.104Z,9.35
2022-10-01T03:07:37.133Z,9.35
2022-10-01T03:12:42.858Z,9.35
2022-10-01T03:17:47.302Z,9.35
2022-10-01T03:22:50.005Z,9.35
2022-10-01T03:27:52.815Z,9.32
2022-10-01T03:32:56.937Z,9.30
2022-10-01T03:37:59.634Z,9.29
2022-10-01T03:43:02.325Z,9.28
2022-10-01T03:48:06.458Z,9.26
2022-10-01T03:53:09.174Z,9.28
2022-10-01T03:58:11.856Z,9.28
2022-10-01T04:03:16.581Z,9.29
2022-10-01T04:08:24.098Z,9.29
2022-10-01T04:13:27.015Z,9.29
2022-10-01T04:18:31.162Z,9.30
2022-10-01T04:23:34.326Z,9.31
2022-10-01T04:28:37.120Z,9.31
2022-10-01T04:33:41.232Z,9.31
2022-10-01T04:38:43.948Z,9.31
2022-10-01T04:43:46.634Z,9.35
2022-10-01T04:48:50.823Z,9.40
2022-10-01T04:53:53.569Z,9.42
2022-10-01T04:58:56.349Z,9.45
2022-10-01T05:04:00.523Z,9.48
2022-10-01T05:09:03.362Z,9.53
2022-10-01T05:14:06.221Z,9.56
2022-10-01T05:19:10.443Z,9.60
2022-10-01T05:24:13.138Z,9.65
2022-10-01T05:29:15.840Z,9.69
2022-10-01T05:34:19.900Z,9.72
2022-10-01T05:39:22.599Z,9.74
2022-10-01T05:44:26.098Z,9.78
2022-10-01T05:49:30.165Z,9.82
2022-10-01T05:54:32.842Z,9.86
2022-10-01T05:59:35.625Z,9.89
2022-10-01T06:04:41.310Z,9.91
2022-10-01T06:09:44.906Z,9.94
2022-10-01T06:14:47.774Z,10.01
2022-10-01T06:19:52.456Z,10.05
2022-10-01T06:24:56.791Z,10.09
2022-10-01T06:29:59.550Z,10.15
2022-10-01T06:35:03.661Z,10.20
2022-10-01T06:40:07.724Z,10.27
2022-10-01T06:45:11.206Z,10.34
2022-10-01T06:50:15.321Z,10.40
2022-10-01T06:55:18.447Z,10.43
2022-10-01T07:00:21.215Z,10.46
2022-10-01T07:05:26.177Z,10.54
2022-10-01T07:10:28.922Z,10.62
2022-10-01T07:15:31.632Z,10.69
2022-10-01T07:20:39.533Z,10.78
2022-10-01T07:25:43.878Z,10.85
2022-10-01T07:30:48.544Z,10.92
2022-10-01T07:35:52.629Z,11.00
2022-10-01T07:40:55.618Z,11.07
2022-10-01T07:46:00.066Z,11.12
2022-10-01T07:51:04.370Z,11.15
2022-10-01T07:56:07.288Z,11.23
2022-10-01T08:01:10.518Z,11.30
2022-10-01T08:06:15.102Z,11.40
2022-10-01T08:11:18.350Z,11.46
2022-10-01T08:16:21.109Z,11.55
2022-10-01T08:21:25.883Z,11.59
2022-10-01T08:26:28.611Z,11.65
2022-10-01T08:31:31.686Z,11.66
2022-10-01T08:36:37.800Z,11.71
2022-10-01T08:41:54.038Z,11.76
2022-10-01T08:47:04.861Z,11.80
2022-10-01T08:52:19.849Z,11.83
2022-10-01T08:57:26.456Z,11.84
2022-10-01T09:02:31.531Z,11.83
2022-10-01T09:07:48.502Z,11.81
2022-10-01T09:13:06.395Z,11.76
2022-10-01T09:18:19.282Z,11.77
2022-10-01T09:23:28.409Z,11.74
2022-10-01T09:28:33.244Z,11.74
2022-10-01T09:33:38.773Z,11.73
2022-10-01T09:38:44.803Z,11.69
2022-10-01T09:43:47.844Z,11.65
2022-10-01T09:48:56.427Z,11.59
2022-10-01T09:54:06.209Z,11.56
2022-10-01T09:59:17.710Z,11.53
2022-10-01T10:04:23.508Z,11.49
2022-10-01T10:09:31.896Z,11.46
2022-10-01T10:14:37.221Z,11.44
2022-10-01T10:19:41.297Z,11.41
2022-10-01T10:24:45.411Z,11.36
2022-10-01T10:29:48.200Z,11.34
2022-10-01T10:34:52.173Z,11.32
2022-10-01T10:39:57.101Z,11.32
2022-10-01T10:45:04.342Z,11.37
2022-10-01T10:50:22.492Z,11.37
2022-10-01T10:55:31.937Z,11.38
2022-10-01T11:00:44.177Z,11.38
2022-10-01T11:05:51.463Z,11.38
2022-10-01T11:11:08.948Z,11.39
2022-10-01T11:16:31.431Z,11.40
2022-10-01T11:21:56.767Z,11.45
2022-10-01T11:27:07.440Z,11.45
2022-10-01T11:32:19.364Z,11.49
2022-10-01T11:37:36.342Z,11.49
2022-10-01T11:42:44.092Z,11.48
2022-10-01T11:47:52.793Z,11.49
2022-10-01T11:53:00.019Z,11.56
2022-10-01T11:58:30.949Z,11.60
2022-10-01T12:03:43.953Z,11.62
2022-10-01T12:08:54.874Z,11.65
2022-10-01T12:14:04.430Z,11.67
2022-10-01T12:19:14.998Z,11.67
2022-10-01T12:24:21.555Z,11.74
2022-10-01T12:29:36.270Z,11.77
2022-10-01T12:34:54.061Z,11.83
2022-10-01T12:40:19.614Z,11.86
2022-10-01T12:45:33.609Z,11.90
2022-10-01T12:50:48.217Z,11.90
2022-10-01T12:56:07.405Z,11.90
2022-10-01T13:01:20.939Z,11.89
2022-10-01T13:06:35.671Z,11.92
2022-10-01T13:11:58.160Z,11.96
2022-10-01T13:17:10.442Z,12.05
2022-10-01T13:22:19.728Z,12.15
2022-10-01T13:27:29.824Z,12.30
2022-10-01T13:32:35.807Z,12.38
2022-10-01T13:37:40.695Z,12.49
2022-10-01T13:42:47.487Z,12.64
2022-10-01T13:47:51.828Z,12.81
2022-10-01T13:53:06.703Z,12.99
2022-10-01T13:58:24.009Z,13.17
2022-10-01T14:03:52.322Z,13.32
2022-10-01T14:09:01.338Z,13.48
2022-10-01T14:14:30.080Z,13.73
2022-10-01T14:19:34.230Z,13.93
2022-10-01T14:24:48.907Z,14.09
2022-10-01T14:30:03.357Z,14.22
2022-10-01T14:35:29.428Z,14.34
2022-10-01T14:40:38.698Z,14.41
2022-10-01T14:45:51.613Z,14.42
2022-10-01T14:50:58.309Z,14.46
2022-10-01T14:56:04.989Z,14.48
2022-10-01T15:01:08.390Z,14.48
2022-10-01T15:06:14.919Z,14.53
2022-10-01T15:11:21.238Z,14.53
2022-10-01T15:16:26.024Z,14.47
2022-10-01T15:21:37.542Z,14.40
2022-10-01T15:26:40.426Z,14.28
2022-10-01T15:31:44.616Z,14.18
2022-10-01T15:36:50.347Z,14.14
2022-10-01T15:41:54.800Z,14.08
2022-10-01T15:47:28.375Z,14.06
2022-10-01T15:52:53.024Z,14.03
2022-10-01T15:57:57.846Z,14.00
2022-10-01T16:03:01.361Z,14.00
2022-10-01T16:08:06.457Z,14.01
2022-10-01T16:13:31.040Z,14.00
2022-10-01T16:18:34.826Z,13.98
2022-10-01T16:23:43.009Z,13.97
2022-10-01T16:28:46.409Z,13.92
2022-10-01T16:33:49.150Z,13.93
2022-10-01T16:38:53.627Z,13.92
2022-10-01T16:43:59.079Z,13.89
2022-10-01T16:49:01.787Z,13.86
2022-10-01T16:54:07.701Z,13.82
2022-10-01T16:59:10.749Z,13.81
2022-10-01T17:04:14.516Z,13.77
2022-10-01T17:09:18.602Z,13.75
2022-10-01T17:14:22.181Z,13.73
2022-10-01T17:19:25.759Z,13.69
2022-10-01T17:24:29.982Z,13.64
2022-10-01T17:29:33.646Z,13.60
2022-10-01T17:34:36.700Z,13.52
2022-10-01T17:39:42.199Z,13.49
2022-10-01T17:44:45.448Z,13.44
2022-10-01T17:49:48.184Z,13.41
2022-10-01T17:54:52.421Z,13.38
2022-10-01T17:59:55.119Z,13.35
2022-10-01T18:04:57.870Z,13.30
2022-10-01T18:10:02.077Z,13.25
2022-10-01T18:15:05.252Z,13.22
2022-10-01T18:20:08.670Z,13.19
2022-10-01T18:25:13.906Z,13.18
2022-10-01T18:30:17.350Z,13.14
2022-10-01T18:35:26.513Z,13.09
2022-10-01T18:40:35.145Z,13.07
2022-10-01T18:45:52.330Z,13.02
2022-10-01T18:51:06.703Z,12.99
2022-10-01T18:56:23.795Z,13.00
2022-10-01T19:01:37.605Z,12.97
2022-10-01T19:06:52.791Z,12.94
2022-10-01T19:12:05.802Z,12.91
2022-10-01T19:17:19.919Z,12.89
2022-10-01T19:22:31.888Z,12.87
2022-10-01T19:27:50.885Z,12.81
2022-10-01T19:33:00.297Z,12.75
2022-10-01T19:38:07.642Z,12.67
2022-10-01T19:43:19.533Z,12.62
2022-10-01T19:48:28.765Z,12.58
2022-10-01T19:53:37.328Z,12.54
2022-10-01T19:58:41.566Z,12.49
2022-10-01T20:03:52.053Z,12.48
2022-10-01T20:08:59.342Z,12.45
2022-10-01T20:14:40.252Z,12.44
2022-10-01T20:19:51.783Z,12.37
2022-10-01T20:25:04.429Z,12.36
2022-10-01T20:30:12.177Z,12.35
2022-10-01T20:35:26.218Z,12.31
2022-10-01T20:40:33.302Z,12.28
2022-10-01T20:45:40.310Z,12.25
2022-10-01T20:50:45.822Z,12.22
2022-10-01T20:55:54.534Z,12.17
2022-10-01T21:01:05.306Z,12.13
2022-10-01T21:06:13.046Z,12.08
2022-10-01T21:11:23.119Z,12.01
2022-10-01T21:17:01.990Z,11.98
2022-10-01T21:22:17.096Z,11.94
2022-10-01T21:27:35.025Z,11.88
2022-10-01T21:33:01.388Z,11.86
2022-10-01T21:38:12.708Z,11.83
2022-10-01T21:43:30.373Z,11.81
2022-10-01T21:48:45.451Z,11.80
2022-10-01T21:54:04.061Z,11.79
2022-10-01T21:59:14.771Z,11.77
2022-10-01T22:04:27.194Z,11.76
2022-10-01T22:09:39.765Z,11.75
2022-10-01T22:14:45.361Z,11.74
2022-10-01T22:19:52.247Z,11.75
2022-10-01T22:24:56.046Z,11.75
2022-10-01T22:30:02.923Z,11.76
2022-10-01T22:35:14.086Z,11.76
2022-10-01T22:40:22.467Z,11.75
2022-10-01T22:45:33.437Z,11.74
2022-10-01T22:50:50.213Z,11.72
2022-10-01T22:55:55.274Z,11.70
2022-10-01T23:01:09.325Z,11.68
2022-10-01T23:06:26.113Z,11.67
2022-10-01T23:11:36.644Z,11.66
2022-10-01T23:16:46.892Z,11.69
2022-10-01T23:21:58.872Z,11.69
2022-10-01T23:27:14.170Z,11.67
2022-10-01T23:32:29.799Z,11.67
2022-10-01T23:37:51.077Z,11.65
2022-10-01T23:43:00.507Z,11.64
2022-10-01T23:48:09.565Z,11.61
2022-10-01T23:53:17.669Z,11.63
2022-10-01T23:58:23.771Z,11.64
